Time;durP1;ratioP1;P1;durP2;ratioP2;P2;SDS_P1;SDS_P2;PMS_P1;PMS_P2;Temp;Humidity;BMP_temperature;BMP_pressure;BME280_temperature;BME280_humidity;BME280_pressure;Samples;Min_cycle;Max_cycle;Signal;HPM_P1;HPM_P2
2023/01/31 00:00:25;;;;;;;;;;;;;;;7.14;100.00;100393.66;5109470;28;19924;-79
2023/01/31 00:02:52;;;;;;;;;;;;;;;7.10;100.00;100389.41;5115249;28;19927;-79
2023/01/31 00:05:18;;;;;;;;;;;;;;;7.09;100.00;100398.13;5101837;28;19919;-79
2023/01/31 00:07:46;;;;;;;;;;;;;;;7.07;100.00;100390.38;5111462;28;19926;-79
2023/01/31 00:10:13;;;;;;;;;;;;;;;7.20;100.00;100393.47;5098286;28;19926;-79
2023/01/31 00:12:40;;;;;;;;;;;;;;;7.23;100.00;100380.34;5112213;28;19926;-79
2023/01/31 00:15:06;;;;;;;;;;;;;;;7.28;100.00;100382.81;5112624;28;19919;-79
2023/01/31 00:17:33;;;;;;;;;;;;;;;7.31;100.00;100381.00;5113646;28;19931;-80
2023/01/31 00:20:00;;;;;;;;;;;;;;;7.26;100.00;100369.88;5108075;28;19964;-79
2023/01/31 00:22:26;;;;;;;;;;;;;;;7.28;100.00;100367.19;5111973;28;19980;-79
2023/01/31 00:24:53;;;;;;;;;;;;;;;7.32;100.00;100345.38;5113369;28;19920;-80
2023/01/31 00:27:19;;;;;;;;;;;;;;;7.27;100.00;100327.28;5107338;28;19978;-79
2023/01/31 00:29:46;;;;;;;;;;;;;;;7.22;100.00;100295.31;5106243;28;19976;-80
2023/01/31 00:32:12;;;;;;;;;;;;;;;7.28;100.00;100276.91;5107423;28;19942;-79
2023/01/31 00:34:39;;;;;;;;;;;;;;;7.35;100.00;100264.56;5103738;28;19963;-80
2023/01/31 00:37:05;;;;;;;;;;;;;;;7.29;100.00;100256.91;5112842;28;19919;-79
2023/01/31 00:39:32;;;;;;;;;;;;;;;7.44;100.00;100261.66;5110573;28;19942;-80
2023/01/31 00:41:59;;;;;;;;;;;;;;;7.40;100.00;100254.81;5098262;28;19923;-80
2023/01/31 00:44:25;;;;;;;;;;;;;;;7.28;100.00;100237.84;5109060;28;20015;-79
2023/01/31 00:46:52;;;;;;;;;;;;;;;7.29;100.00;100239.53;5112286;28;19968;-80
2023/01/31 00:49:18;;;;;;;;;;;;;;;7.26;100.00;100241.38;5111312;28;20214;-80
2023/01/31 00:51:45;;;;;;;;;;;;;;;7.35;100.00;100243.72;5111530;28;19920;-80
2023/01/31 00:54:12;;;;;;;;;;;;;;;7.37;100.00;100234.94;5111844;27;19924;-79
2023/01/31 00:56:38;;;;;;;;;;;;;;;7.42;100.00;100227.00;5105683;28;19927;-79
2023/01/31 00:59:07;;;;;;;;;;;;;;;7.46;100.00;100222.53;5103038;28;20261;-80
2023/01/31 01:01:34;;;;;;;;;;;;;;;7.51;100.00;100228.44;5112560;28;20361;-80
2023/01/31 01:04:02;;;;;;;;;;;;;;;7.50;100.00;100231.94;5110771;28;19924;-80
2023/01/31 01:06:28;;;;;;;;;;;;;;;7.45;100.00;100234.69;5065586;28;1304759;-80
2023/01/31 01:08:56;;;;;;;;;;;;;;;7.38;100.00;100226.25;5113283;28;20365;-79
2023/01/31 01:11:24;;;;;;;;;;;;;;;7.31;100.00;100209.13;5113757;28;19920;-79
2023/01/31 01:13:51;;;;;;;;;;;;;;;7.23;100.00;100200.69;5112807;28;19923;-80
2023/01/31 01:16:20;;;;;;;;;;;;;;;7.19;100.00;100209.50;5111845;28;20427;-80
2023/01/31 01:18:48;;;;;;;;;;;;;;;7.07;100.00;100213.34;5112223;28;19948;-80
2023/01/31 01:21:16;;;;;;;;;;;;;;;7.06;100.00;100202.97;5112343;28;19923;-80
2023/01/31 01:23:42;;;;;;;;;;;;;;;6.99;100.00;100202.31;5112301;28;19973;-79
2023/01/31 01:26:13;;;;;;;;;;;;;;;7.00;100.00;100207.47;5111574;28;20044;-79
2023/01/31 01:28:40;;;;;;;;;;;;;;;6.95;100.00;100201.56;5104180;28;19920;-79
2023/01/31 01:31:07;;;;;;;;;;;;;;;6.84;100.00;100196.69;5111778;28;19919;-79
2023/01/31 01:33:35;;;;;;;;;;;;;;;6.76;100.00;100193.44;5109988;28;20265;-79
2023/01/31 01:36:06;;;;;;;;;;;;;;;6.78;100.00;100194.28;5111413;28;19924;-80
2023/01/31 01:38:34;;;;;;;;;;;;;;;6.76;100.00;100198.66;5098754;28;19923;-79
2023/01/31 01:41:02;;;;;;;;;;;;;;;6.72;100.00;100191.00;5111934;28;19923;-79
2023/01/31 01:43:58;;;;;;;;;;;;;;;6.67;100.00;100187.69;5111044;28;19927;-79
2023/01/31 01:46:43;;;;;;;;;;;;;;;6.63;100.00;100185.16;5096982;28;19923;-80
2023/01/31 01:49:17;;;;;;;;;;;;;;;6.66;100.00;100176.44;5111813;28;19923;-80
2023/01/31 01:51:45;;;;;;;;;;;;;;;6.65;100.00;100172.97;5111391;28;19926;-79
2023/01/31 01:54:16;;;;;;;;;;;;;;;6.63;100.00;100179.13;5112799;28;19919;-80
2023/01/31 01:56:45;;;;;;;;;;;;;;;6.61;100.00;100180.94;5111529;28;19920;-80
2023/01/31 01:59:18;;;;;;;;;;;;;;;6.60;100.00;100176.63;5107294;28;19920;-79
2023/01/31 02:01:46;;;;;;;;;;;;;;;6.68;100.00;100186.81;5106153;28;19926;-80
2023/01/31 02:04:16;;;;;;;;;;;;;;;6.73;100.00;100183.16;5107026;28;19920;-79
2023/01/31 02:06:44;;;;;;;;;;;;;;;6.80;100.00;100183.84;5111876;28;19920;-79
2023/01/31 02:09:24;;;;;;;;;;;;;;;6.87;100.00;100177.53;5110782;28;20559;-79
2023/01/31 02:11:51;;;;;;;;;;;;;;;6.90;100.00;100167.00;5111100;28;20383;-80
2023/01/31 02:14:18;;;;;;;;;;;;;;;6.75;100.00;100163.16;5111436;28;19924;-80
2023/01/31 02:16:45;;;;;;;;;;;;;;;6.78;100.00;100168.25;5112632;28;19919;-79
2023/01/31 02:19:18;;;;;;;;;;;;;;;6.71;100.00;100171.94;5111365;28;20372;-79
2023/01/31 02:22:11;;;;;;;;;;;;;;;6.62;100.00;100152.28;5111811;28;19931;-79
2023/01/31 02:24:40;;;;;;;;;;;;;;;6.61;100.00;100153.16;5094764;28;19926;-79
2023/01/31 02:27:10;;;;;;;;;;;;;;;6.55;100.00;100153.34;5107288;28;19927;-79
2023/01/31 02:29:39;;;;;;;;;;;;;;;6.56;100.00;100155.03;5107662;28;19924;-80
2023/01/31 02:32:21;;;;;;;;;;;;;;;6.50;100.00;100151.78;5110969;28;20260;-79
2023/01/31 02:35:11;;;;;;;;;;;;;;;6.39;100.00;100152.09;5112237;28;19920;-80
2023/01/31 02:37:58;;;;;;;;;;;;;;;6.38;100.00;100155.59;5095654;28;19920;-80
2023/01/31 02:40:28;;;;;;;;;;;;;;;6.36;100.00;100147.84;5090847;28;19926;-80
2023/01/31 02:42:55;;;;;;;;;;;;;;;6.27;100.00;100140.31;5112237;28;19920;-80
2023/01/31 02:45:39;;;;;;;;;;;;;;;6.25;100.00;100136.91;5112412;28;19920;-80
2023/01/31 02:48:09;;;;;;;;;;;;;;;6.20;100.00;100134.44;5108221;28;20002;-79
2023/01/31 02:50:38;;;;;;;;;;;;;;;6.14;100.00;100142.41;5107213;28;19972;-79
2023/01/31 02:53:09;;;;;;;;;;;;;;;6.04;100.00;100136.63;5112014;28;19924;-80
2023/01/31 02:59:00;;;;;;;;;;;;;;;5.97;100.00;100142.06;5105465;28;19941;-80
2023/01/31 03:01:29;;;;;;;;;;;;;;;6.05;100.00;100132.28;5110839;28;19924;-80
2023/01/31 03:03:58;;;;;;;;;;;;;;;6.32;100.00;100137.56;5110785;28;19920;-80
2023/01/31 03:06:25;;;;;;;;;;;;;;;6.52;100.00;100134.41;5111575;28;19926;-80
2023/01/31 03:08:58;;;;;;;;;;;;;;;6.72;100.00;100144.19;5110717;28;19919;-80
2023/01/31 03:11:34;;;;;;;;;;;;;;;6.86;100.00;100143.75;5107366;28;20361;-79
2023/01/31 03:14:09;;;;;;;;;;;;;;;6.95;100.00;100141.69;5110499;28;19923;-79
2023/01/31 03:19:31;;;;;;;;;;;;;;;7.15;100.00;100125.44;5110479;28;20010;-79
2023/01/31 03:22:07;;;;;;;;;;;;;;;7.13;100.00;100118.56;5091855;28;20381;-80
2023/01/31 03:24:34;;;;;;;;;;;;;;;7.18;100.00;100104.50;5106220;28;19942;-79
2023/01/31 03:27:04;;;;;;;;;;;;;;;7.08;100.00;100110.91;5099378;28;20330;-79
2023/01/31 03:29:33;;;;;;;;;;;;;;;7.23;100.00;100093.94;5105648;28;19927;-79
2023/01/31 03:32:05;;;;;;;;;;;;;;;7.13;100.00;100087.31;5110279;28;19927;-79
2023/01/31 03:34:32;;;;;;;;;;;;;;;7.40;100.00;100081.19;5105815;28;20361;-78
2023/01/31 03:37:14;;;;;;;;;;;;;;;7.38;100.00;100079.53;5110094;28;19988;-79
2023/01/31 03:39:43;;;;;;;;;;;;;;;7.48;100.00;100086.13;5103144;28;19928;-79
2023/01/31 03:42:26;;;;;;;;;;;;;;;7.53;100.00;100085.97;5108060;28;19927;-80
2023/01/31 03:45:04;;;;;;;;;;;;;;;7.42;100.00;100075.94;5110598;28;19920;-79
2023/01/31 03:47:37;;;;;;;;;;;;;;;7.51;100.00;100074.75;5109385;28;19926;-79
2023/01/31 03:50:12;;;;;;;;;;;;;;;7.53;100.00;100073.78;5102094;28;19927;-79
2023/01/31 03:52:47;;;;;;;;;;;;;;;7.51;100.00;100072.16;5112602;28;20014;-79
2023/01/31 03:55:16;;;;;;;;;;;;;;;7.54;100.00;100052.03;5103135;28;20285;-78
2023/01/31 03:57:45;;;;;;;;;;;;;;;7.62;100.00;100038.72;5099207;28;20350;-79
2023/01/31 04:00:13;;;;;;;;;;;;;;;7.45;100.00;100028.91;5114974;28;20610;-79
2023/01/31 04:02:41;;;;;;;;;;;;;;;7.51;100.00;100025.25;5113056;28;19923;-79
2023/01/31 04:05:19;;;;;;;;;;;;;;;7.55;100.00;100026.84;5102408;28;20348;-79
2023/01/31 04:07:46;;;;;;;;;;;;;;;7.45;100.00;100023.69;5112017;28;19928;-79
2023/01/31 04:10:17;;;;;;;;;;;;;;;7.50;100.00;100021.78;5099078;28;19919;-79
2023/01/31 04:12:44;;;;;;;;;;;;;;;7.59;100.00;100024.03;5114418;28;20551;-79
2023/01/31 04:15:12;;;;;;;;;;;;;;;7.53;100.00;100033.84;5114054;28;19954;-79
2023/01/31 04:17:38;;;;;;;;;;;;;;;7.45;100.00;100020.25;5111203;28;19924;-79
2023/01/31 04:20:05;;;;;;;;;;;;;;;7.49;100.00;100016.63;5110686;28;19920;-79
2023/01/31 04:22:32;;;;;;;;;;;;;;;7.40;100.00;100013.47;5110717;28;19923;-79
2023/01/31 04:24:59;;;;;;;;;;;;;;;7.43;100.00;100011.66;5113055;28;20060;-79
2023/01/31 04:27:25;;;;;;;;;;;;;;;7.28;100.00;100002.63;5114162;28;19942;-80
2023/01/31 04:29:52;;;;;;;;;;;;;;;7.37;100.00;100004.91;5106255;28;19945;-79
2023/01/31 04:32:19;;;;;;;;;;;;;;;7.32;100.00;99996.41;5111676;28;19920;-79
2023/01/31 04:34:45;;;;;;;;;;;;;;;7.35;100.00;99994.53;5112744;28;19919;-79
2023/01/31 04:37:12;;;;;;;;;;;;;;;7.20;100.00;99990.72;5114226;28;19920;-79
2023/01/31 04:39:39;;;;;;;;;;;;;;;7.29;100.00;99996.50;5111604;28;19920;-79
2023/01/31 04:42:05;;;;;;;;;;;;;;;7.28;100.00;100003.50;5112940;28;19920;-79
2023/01/31 04:44:32;;;;;;;;;;;;;;;7.26;100.00;100002.69;5113833;28;19924;-79
2023/01/31 04:46:58;;;;;;;;;;;;;;;7.20;100.00;99993.31;5114035;28;19919;-79
2023/01/31 04:49:25;;;;;;;;;;;;;;;7.22;100.00;99998.47;5111401;28;19920;-79
2023/01/31 04:51:52;;;;;;;;;;;;;;;7.22;100.00;100003.69;5113528;28;19919;-79
2023/01/31 04:54:19;;;;;;;;;;;;;;;7.22;100.00;100001.09;5111166;27;19919;-79
2023/01/31 04:56:45;;;;;;;;;;;;;;;7.18;100.00;100020.34;5112583;28;19919;-79
2023/01/31 04:59:12;;;;;;;;;;;;;;;7.26;100.00;100017.44;5112227;27;19989;-79
2023/01/31 05:01:40;;;;;;;;;;;;;;;7.27;100.00;100020.00;5111979;28;19928;-79
2023/01/31 05:04:07;;;;;;;;;;;;;;;7.31;100.00;100012.94;5113641;28;19920;-79
2023/01/31 05:06:34;;;;;;;;;;;;;;;7.21;100.00;100009.81;5112610;28;19919;-79
2023/01/31 05:09:00;;;;;;;;;;;;;;;7.29;100.00;100022.56;5110265;28;19972;-79
2023/01/31 05:11:27;;;;;;;;;;;;;;;7.29;100.00;100025.16;5113025;28;19977;-79
2023/01/31 05:13:54;;;;;;;;;;;;;;;7.30;100.00;100022.50;5111798;28;20361;-79
2023/01/31 05:16:21;;;;;;;;;;;;;;;7.24;100.00;100014.88;5112806;28;19935;-79
2023/01/31 05:18:49;;;;;;;;;;;;;;;7.21;100.00;100026.28;5112390;28;19919;-79
2023/01/31 05:21:16;;;;;;;;;;;;;;;7.25;100.00;100015.75;5112944;28;19926;-79
2023/01/31 05:23:42;;;;;;;;;;;;;;;7.30;100.00;100019.06;5111642;28;19920;-80
2023/01/31 05:26:09;;;;;;;;;;;;;;;7.29;100.00;100023.41;5112736;28;20316;-79
2023/01/31 05:28:36;;;;;;;;;;;;;;;7.30;100.00;100014.69;5103798;28;19920;-79
2023/01/31 05:31:04;;;;;;;;;;;;;;;7.27;100.00;100022.59;5113408;28;19950;-79
2023/01/31 05:33:32;;;;;;;;;;;;;;;7.27;100.00;100013.94;5111881;28;20288;-79
2023/01/31 05:35:59;;;;;;;;;;;;;;;7.21;100.00;100010.66;5112397;28;19920;-79
2023/01/31 05:38:26;;;;;;;;;;;;;;;7.35;100.00;100012.78;5110011;28;19926;-79
2023/01/31 05:40:52;;;;;;;;;;;;;;;7.27;100.00;100011.34;5112055;28;20307;-79
2023/01/31 05:43:19;;;;;;;;;;;;;;;7.18;100.00;100002.09;5113380;28;19924;-79
2023/01/31 05:45:47;;;;;;;;;;;;;;;7.12;100.00;100023.13;5112767;28;20380;-79
2023/01/31 05:48:13;;;;;;;;;;;;;;;7.10;100.00;100027.53;5105928;28;20235;-79
2023/01/31 05:50:40;;;;;;;;;;;;;;;7.18;100.00;100028.97;5107881;28;19927;-79
2023/01/31 05:53:08;;;;;;;;;;;;;;;7.15;100.00;100034.31;5111759;28;20360;-79
2023/01/31 05:55:34;;;;;;;;;;;;;;;7.16;100.00;100038.59;5097708;28;19974;-79
2023/01/31 05:58:01;;;;;;;;;;;;;;;6.98;100.00;100044.47;5108049;28;19943;-79
2023/01/31 06:00:27;;;;;;;;;;;;;;;7.07;100.00;100035.47;5103974;28;19945;-79
2023/01/31 06:02:57;;;;;;;;;;;;;;;7.04;100.00;100045.06;5111658;28;20226;-80
2023/01/31 06:05:25;;;;;;;;;;;;;;;7.04;100.00;100045.06;5112626;28;19977;-79
2023/01/31 06:07:52;;;;;;;;;;;;;;;6.90;100.00;100060.31;5104390;28;19920;-79
2023/01/31 06:10:19;;;;;;;;;;;;;;;6.82;100.00;100055.38;5110700;28;19924;-79
2023/01/31 06:12:46;;;;;;;;;;;;;;;6.85;100.00;100046.59;5109601;28;19924;-79
2023/01/31 06:15:13;;;;;;;;;;;;;;;6.79;100.00;100055.47;5111128;28;20011;-79
2023/01/31 06:17:40;;;;;;;;;;;;;;;6.90;100.00;100062.91;5110578;28;19920;-80
2023/01/31 06:20:07;;;;;;;;;;;;;;;6.78;100.00;100063.31;5111320;28;20414;-79
2023/01/31 06:22:33;;;;;;;;;;;;;;;6.82;100.00;100070.97;5111486;28;19920;-79
2023/01/31 06:25:00;;;;;;;;;;;;;;;6.73;100.00;100068.69;5111465;28;19919;-78
2023/01/31 06:27:26;;;;;;;;;;;;;;;6.64;100.00;100071.59;5109358;28;19927;-79
2023/01/31 06:29:53;;;;;;;;;;;;;;;6.64;100.00;100082.00;5105950;28;20403;-79
2023/01/31 06:32:19;;;;;;;;;;;;;;;6.40;100.00;100079.25;5112604;28;19927;-80
2023/01/31 06:34:46;;;;;;;;;;;;;;;6.40;100.00;100083.59;5111299;28;20412;-80
2023/01/31 06:37:13;;;;;;;;;;;;;;;6.21;100.00;100071.13;5112247;28;19924;-80
2023/01/31 06:39:39;;;;;;;;;;;;;;;6.19;100.00;100061.69;5105900;28;19920;-80
2023/01/31 06:42:06;;;;;;;;;;;;;;;6.09;100.00;100079.31;5097874;28;19919;-82
2023/01/31 06:44:32;;;;;;;;;;;;;;;6.08;100.00;100086.25;5099061;28;19920;-82
2023/01/31 06:47:00;;;;;;;;;;;;;;;6.07;100.00;100092.38;5105230;28;20357;-80
2023/01/31 06:49:27;;;;;;;;;;;;;;;6.07;100.00;100104.50;5102935;28;19924;-79
2023/01/31 06:51:54;;;;;;;;;;;;;;;6.02;100.00;100119.38;5098154;28;19924;-79
2023/01/31 06:54:21;;;;;;;;;;;;;;;5.84;100.00;100111.19;5101798;28;20376;-80
2023/01/31 06:56:47;;;;;;;;;;;;;;;5.75;100.00;100118.38;5102820;28;19920;-80
2023/01/31 06:59:14;;;;;;;;;;;;;;;5.79;100.00;100120.84;5103975;28;19931;-80
2023/01/31 07:01:41;;;;;;;;;;;;;;;5.80;100.00;100106.94;5097079;28;19920;-81
2023/01/31 07:04:08;;;;;;;;;;;;;;;5.63;100.00;100117.81;5107097;28;19955;-80
2023/01/31 07:06:34;;;;;;;;;;;;;;;5.60;100.00;100117.06;5100790;28;19944;-80
2023/01/31 07:09:01;;;;;;;;;;;;;;;5.53;100.00;100113.75;5099485;28;19920;-81
2023/01/31 07:11:27;;;;;;;;;;;;;;;5.48;100.00;100111.28;5096741;28;20051;-79
2023/01/31 07:13:54;;;;;;;;;;;;;;;5.43;100.00;100123.53;5100963;28;20007;-80
2023/01/31 07:16:22;;;;;;;;;;;;;;;5.24;100.00;100133.56;5100533;28;20327;-80
2023/01/31 07:18:51;;;;;;;;;;;;;;;5.11;100.00;100113.97;5105770;28;19924;-80
2023/01/31 07:21:18;;;;;;;;;;;;;;;5.17;100.00;100124.22;5110062;28;19927;-81
2023/01/31 07:23:45;;;;;;;;;;;;;;;5.09;100.00;100127.00;5112215;28;19923;-81
2023/01/31 07:26:12;;;;;;;;;;;;;;;5.07;100.00;100130.53;5115545;28;19919;-81
2023/01/31 07:28:38;;;;;;;;;;;;;;;4.96;100.00;100128.19;5099432;28;20053;-81
2023/01/31 07:31:06;;;;;;;;;;;;;;;5.02;100.00;100127.19;5113634;28;20376;-81
2023/01/31 07:33:33;;;;;;;;;;;;;;;4.92;100.00;100145.56;5103288;28;19924;-81
2023/01/31 07:36:00;;;;;;;;;;;;;;;4.97;100.00;100145.44;5104363;28;19926;-81
2023/01/31 07:38:27;;;;;;;;;;;;;;;4.95;100.00;100147.22;5102732;28;19923;-81
2023/01/31 07:40:56;;;;;;;;;;;;;;;4.95;100.00;100155.84;5113255;28;20303;-81
2023/01/31 07:43:23;;;;;;;;;;;;;;;5.01;100.00;100151.41;5110193;28;19977;-81
2023/01/31 07:45:50;;;;;;;;;;;;;;;5.07;100.00;100156.47;5114862;28;19939;-81
2023/01/31 07:48:22;;;;;;;;;;;;;;;5.14;100.00;100151.09;5113621;28;20357;-80
2023/01/31 07:50:49;;;;;;;;;;;;;;;5.16;100.00;100150.22;5112303;28;19920;-80
2023/01/31 07:53:16;;;;;;;;;;;;;;;5.16;100.00;100148.47;5104870;27;19927;-80
2023/01/31 07:55:46;;;;;;;;;;;;;;;5.19;100.00;100132.81;5112896;28;19965;-81
2023/01/31 07:58:13;;;;;;;;;;;;;;;5.18;100.00;100130.25;5112178;28;19978;-80
2023/01/31 08:03:33;;;;;;;;;;;;;;;5.25;100.00;100134.41;5115156;28;19924;-80
2023/01/31 08:06:01;;;;;;;;;;;;;;;5.21;100.00;100137.97;5110567;28;19920;-81
2023/01/31 08:08:28;;;;;;;;;;;;;;;5.28;100.00;100126.53;5109726;28;19927;-80
2023/01/31 08:10:55;;;;;;;;;;;;;;;5.31;100.00;100135.09;5109223;28;19923;-81
2023/01/31 08:13:21;;;;;;;;;;;;;;;5.18;100.00;100130.25;5103900;28;19927;-80
2023/01/31 08:15:50;;;;;;;;;;;;;;;5.20;100.00;100123.28;5106937;28;19943;-80
2023/01/31 08:18:16;;;;;;;;;;;;;;;5.30;100.00;100140.31;5111318;28;19942;-80
2023/01/31 08:20:43;;;;;;;;;;;;;;;5.14;100.00;100160.63;5115199;28;19920;-80
2023/01/31 08:23:10;;;;;;;;;;;;;;;5.22;100.00;100137.06;5105941;28;19949;-81
2023/01/31 08:25:36;;;;;;;;;;;;;;;5.20;100.00;100150.06;5111267;28;19927;-81
2023/01/31 08:28:03;;;;;;;;;;;;;;;5.20;100.00;100139.69;5104748;28;19920;-80
2023/01/31 08:30:30;;;;;;;;;;;;;;;5.40;100.00;100140.94;5108922;28;20469;-81
2023/01/31 08:32:57;;;;;;;;;;;;;;;5.34;100.00;100136.75;5107886;28;19919;-80
2023/01/31 08:35:27;;;;;;;;;;;;;;;5.35;100.00;100142.78;5097343;28;19930;-80
2023/01/31 08:37:53;;;;;;;;;;;;;;;5.30;100.00;100138.56;5104757;28;19923;-82
2023/01/31 08:40:35;;;;;;;;;;;;;;;5.49;100.00;100151.94;5107754;28;20014;-81
2023/01/31 08:43:02;;;;;;;;;;;;;;;5.40;100.00;100156.50;5106679;28;19919;-80
2023/01/31 08:45:29;;;;;;;;;;;;;;;5.60;100.00;100175.03;5101667;28;19927;-80
2023/01/31 08:47:57;;;;;;;;;;;;;;;5.92;100.00;100182.88;5102399;28;19946;-81
2023/01/31 08:50:25;;;;;;;;;;;;;;;5.89;100.00;100184.63;5107853;28;20353;-80
2023/01/31 08:52:57;;;;;;;;;;;;;;;5.99;100.00;100187.03;5114929;28;19920;-80
2023/01/31 08:55:24;;;;;;;;;;;;;;;6.02;100.00;100186.94;5113897;28;19919;-80
2023/01/31 08:57:51;;;;;;;;;;;;;;;6.19;100.00;100176.09;5113699;28;19923;-81
2023/01/31 09:00:25;;;;;;;;;;;;;;;6.42;100.00;100178.00;5114796;28;19951;-81
2023/01/31 09:02:52;;;;;;;;;;;;;;;6.38;100.00;100187.66;5113554;28;19954;-81
2023/01/31 09:05:20;;;;;;;;;;;;;;;6.58;100.00;100191.41;5113322;28;19930;-80
2023/01/31 09:07:47;;;;;;;;;;;;;;;6.52;100.00;100187.25;5112730;28;19920;-81
2023/01/31 09:10:13;;;;;;;;;;;;;;;6.29;100.00;100182.72;5114758;28;19923;-81
2023/01/31 09:12:40;;;;;;;;;;;;;;;6.43;100.00;100177.13;5113518;28;20338;-80
2023/01/31 09:15:07;;;;;;;;;;;;;;;6.32;100.00;100171.38;5106595;28;19920;-80
2023/01/31 09:17:33;;;;;;;;;;;;;;;5.96;100.00;100185.38;5113301;28;19927;-81
2023/01/31 09:20:05;;;;;;;;;;;;;;;5.90;100.00;100185.50;5111379;28;19927;-80
2023/01/31 09:22:33;;;;;;;;;;;;;;;5.81;100.00;100190.97;5110841;28;20003;-81
2023/01/31 09:25:00;;;;;;;;;;;;;;;5.88;100.00;100184.72;5111912;28;19919;-81
2023/01/31 09:27:27;;;;;;;;;;;;;;;5.74;100.00;100198.06;5114580;28;19938;-81
2023/01/31 09:29:55;;;;;;;;;;;;;;;5.86;100.00;100202.94;5105463;28;19920;-80
2023/01/31 09:32:21;;;;;;;;;;;;;;;5.85;100.00;100201.22;5112128;28;19927;-81
2023/01/31 09:34:48;;;;;;;;;;;;;;;5.83;100.00;100191.78;5112675;28;19926;-80
2023/01/31 09:37:15;;;;;;;;;;;;;;;5.79;100.00;100188.41;5110742;28;20405;-80
2023/01/31 09:39:42;;;;;;;;;;;;;;;5.58;100.00;100163.84;5109207;28;19927;-80
2023/01/31 09:42:18;;;;;;;;;;;;;;;5.83;100.00;100177.03;5112206;28;19986;-80
2023/01/31 09:44:55;;;;;;;;;;;;;;;5.83;100.00;100184.81;5111689;28;19926;-80
2023/01/31 09:47:28;;;;;;;;;;;;;;;5.86;100.00;100189.06;5112338;28;19935;-80
2023/01/31 09:49:59;;;;;;;;;;;;;;;6.12;100.00;100196.19;5102335;28;19920;-80
2023/01/31 09:52:27;;;;;;;;;;;;;;;5.97;100.00;100194.03;5099110;27;19930;-81
2023/01/31 09:54:54;;;;;;;;;;;;;;;5.97;100.00;100204.44;5112499;28;19926;-81
2023/01/31 09:57:29;;;;;;;;;;;;;;;5.96;100.00;100195.75;5113775;28;19920;-81
2023/01/31 10:00:15;;;;;;;;;;;;;;;5.79;100.00;100206.59;5109879;28;19919;-81
2023/01/31 10:02:59;;;;;;;;;;;;;;;5.86;100.00;100215.03;5113009;28;20482;-81
2023/01/31 10:05:32;;;;;;;;;;;;;;;5.69;100.00;100211.16;5111846;28;19920;-81
2023/01/31 10:08:07;;;;;;;;;;;;;;;5.61;100.00;100233.91;5111825;28;19932;-81
2023/01/31 10:10:37;;;;;;;;;;;;;;;5.56;100.00;100224.50;5112375;28;19924;-81
2023/01/31 10:13:28;;;;;;;;;;;;;;;5.40;100.00;100234.41;5112106;28;19931;-81
2023/01/31 10:15:58;;;;;;;;;;;;;;;5.51;100.00;100222.88;5106154;28;20331;-81
2023/01/31 10:18:46;;;;;;;;;;;;;;;5.64;100.00;100231.19;5111217;28;19977;-81
2023/01/31 10:21:23;;;;;;;;;;;;;;;5.73;100.00;100242.25;5111371;28;19989;-81
2023/01/31 10:23:54;;;;;;;;;;;;;;;5.84;100.00;100238.50;5111977;28;19924;-81
2023/01/31 10:26:27;;;;;;;;;;;;;;;5.81;100.00;100224.75;5112110;28;19924;-81
2023/01/31 10:29:00;;;;;;;;;;;;;;;5.80;100.00;100242.03;5109254;28;19920;-80
2023/01/31 10:31:31;;;;;;;;;;;;;;;6.07;100.00;100237.03;5110675;28;19924;-81
2023/01/31 10:34:17;;;;;;;;;;;;;;;6.21;100.00;100241.88;5113666;28;19923;-81
2023/01/31 10:36:49;;;;;;;;;;;;;;;6.28;100.00;100243.41;5111827;28;19923;-80
2023/01/31 10:39:25;;;;;;;;;;;;;;;6.45;100.00;100249.00;5112294;28;20306;-81
2023/01/31 10:42:00;;;;;;;;;;;;;;;6.69;100.00;100251.78;5112584;28;19924;-81
2023/01/31 10:44:30;;;;;;;;;;;;;;;6.67;100.00;100269.19;5098831;28;20356;-81
2023/01/31 10:46:58;;;;;;;;;;;;;;;6.51;100.00;100275.72;5113246;28;19942;-83
2023/01/31 10:49:25;;;;;;;;;;;;;;;6.55;100.00;100277.34;5101380;28;20332;-81
2023/01/31 10:52:05;;;;;;;;;;;;;;;6.51;100.00;100310.38;5112479;28;19927;-81
2023/01/31 10:54:48;;;;;;;;;;;;;;;6.61;100.00;100306.63;5113171;28;19919;-81
2023/01/31 10:57:16;;;;;;;;;;;;;;;5.83;100.00;100355.44;5113468;28;19920;-81
2023/01/31 10:59:45;;;;;;;;;;;;;;;5.60;100.00;100299.69;5115719;28;19966;-81
2023/01/31 11:02:18;;;;;;;;;;;;;;;5.40;100.00;100320.06;5117220;28;19927;-81
2023/01/31 11:04:45;;;;;;;;;;;;;;;5.35;100.00;100327.09;5111585;28;20020;-81
2023/01/31 11:07:12;;;;;;;;;;;;;;;5.35;100.00;100343.56;5112890;28;20327;-81
2023/01/31 11:09:40;;;;;;;;;;;;;;;5.23;100.00;100344.69;5115069;28;20366;-82
2023/01/31 11:12:07;;;;;;;;;;;;;;;4.71;100.00;100312.03;5115363;28;19920;-81
2023/01/31 11:14:35;;;;;;;;;;;;;;;4.77;100.00;100282.53;5117066;28;19919;-81
2023/01/31 11:17:05;;;;;;;;;;;;;;;4.76;100.00;100273.88;5117497;28;20431;-82
2023/01/31 11:19:38;;;;;;;;;;;;;;;4.85;100.00;100283.22;5114837;28;19919;-81
2023/01/31 11:22:05;;;;;;;;;;;;;;;4.72;100.00;100274.84;5117330;28;19919;-82
2023/01/31 11:24:36;;;;;;;;;;;;;;;4.61;100.00;100275.06;5116052;28;19942;-82
2023/01/31 11:27:05;;;;;;;;;;;;;;;4.88;100.00;100291.78;5101371;28;19949;-81
2023/01/31 11:29:34;;;;;;;;;;;;;;;4.98;100.00;100302.84;5112853;28;19923;-82
2023/01/31 11:32:03;;;;;;;;;;;;;;;5.15;100.00;100323.22;5112651;28;20418;-81
2023/01/31 11:34:30;;;;;;;;;;;;;;;5.00;100.00;100332.19;5104883;28;19919;-81
2023/01/31 11:37:13;;;;;;;;;;;;;;;5.00;100.00;100328.75;5100623;28;20353;-81
2023/01/31 11:39:40;;;;;;;;;;;;;;;5.19;100.00;100316.22;5113803;28;19920;-81
2023/01/31 11:42:11;;;;;;;;;;;;;;;5.20;100.00;100318.78;5115680;28;19928;-81
2023/01/31 11:44:52;;;;;;;;;;;;;;;5.21;100.00;100319.66;5115349;28;19920;-81
2023/01/31 11:47:21;;;;;;;;;;;;;;;5.12;100.00;100310.34;5116908;28;19923;-81
2023/01/31 11:49:49;;;;;;;;;;;;;;;5.23;100.00;100326.50;5114046;28;19919;-81
2023/01/31 11:52:28;;;;;;;;;;;;;;;5.64;100.00;100310.88;5115393;28;20014;-81
2023/01/31 11:54:57;;;;;;;;;;;;;;;5.64;100.00;100322.09;5103984;28;19920;-81
2023/01/31 11:57:32;;;;;;;;;;;;;;;5.67;100.00;100318.59;5114951;28;19953;-81
2023/01/31 12:00:01;;;;;;;;;;;;;;;5.83;100.00;100326.88;5101179;28;19974;-81
2023/01/31 12:02:38;;;;;;;;;;;;;;;6.35;100.00;100319.50;5116327;28;20473;-82
2023/01/31 12:05:10;;;;;;;;;;;;;;;6.34;100.00;100325.59;5117780;27;19939;-81
2023/01/31 12:07:41;;;;;;;;;;;;;;;6.27;100.00;100328.38;5116140;28;19920;-82
2023/01/31 12:10:34;;;;;;;;;;;;;;;6.50;100.00;100303.50;5102131;28;19920;-81
2023/01/31 12:13:02;;;;;;;;;;;;;;;6.80;100.00;100311.34;5114843;28;19950;-81
2023/01/31 12:15:45;;;;;;;;;;;;;;;6.65;100.00;100303.03;5115810;27;20299;-81
2023/01/31 12:18:12;;;;;;;;;;;;;;;6.78;100.00;100311.38;5112029;28;20323;-80
2023/01/31 12:20:46;;;;;;;;;;;;;;;6.69;100.00;100313.38;5114953;28;19943;-81
2023/01/31 12:23:22;;;;;;;;;;;;;;;6.56;100.00;100316.31;5115517;28;19927;-81
2023/01/31 12:25:48;;;;;;;;;;;;;;;6.61;100.00;100316.19;5115478;28;20387;-81
2023/01/31 12:28:34;;;;;;;;;;;;;;;6.61;100.00;100305.78;5112216;28;19926;-82
2023/01/31 12:31:23;;;;;;;;;;;;;;;6.37;100.00;100320.31;5108066;28;19924;-81
2023/01/31 12:34:05;;;;;;;;;;;;;;;6.57;100.00;100330.16;5092194;28;19926;-81
2023/01/31 12:36:32;;;;;;;;;;;;;;;6.49;100.00;100324.34;5113860;28;19972;-82
2023/01/31 12:39:23;;;;;;;;;;;;;;;6.14;100.00;100336.50;5114584;28;20312;-81
2023/01/31 12:42:29;;;;;;;;;;;;;;;5.83;100.00;100358.91;5110118;28;20014;-81
2023/01/31 12:45:02;;;;;;;;;;;;;;;5.65;100.00;100322.97;5093038;28;19920;-81
2023/01/31 12:47:51;;;;;;;;;;;;;;;5.51;100.00;100305.97;5075960;28;19927;-81
2023/01/31 12:50:30;;;;;;;;;;;;;;;5.31;100.00;100298.66;5091433;28;20284;-82
2023/01/31 12:53:15;;;;;;;;;;;;;;;5.37;100.00;100302.84;5114026;28;20269;-81
2023/01/31 12:56:03;;;;;;;;;;;;;;;5.42;100.00;100303.59;5114554;28;19926;-81
2023/01/31 12:58:53;;;;;;;;;;;;;;;5.23;100.00;100302.31;5102318;28;19927;-81
2023/01/31 13:01:47;;;;;;;;;;;;;;;5.28;100.00;100297.88;5107504;28;19959;-81